sensor_id;sensor_type;location;lat;lon;timestamp;pressure;altitude;pressure_sealevel;temperature;humidity
53546;BME280;39432;51.902;10.844;2023-05-20T00:00:44;100383.06;;;12.49;100.00
53546;BME280;39432;51.902;10.844;2023-05-20T00:03:18;100394.53;;;12.29;100.00
53546;BME280;39432;51.902;10.844;2023-05-20T00:05:48;100403.19;;;12.04;100.00
53546;BME280;39432;51.902;10.844;2023-05-20T00:08:18;100394.44;;;11.61;100.00
53546;BME280;39432;51.902;10.844;2023-05-20T00:10:47;100405.06;;;11.86;100.00
53546;BME280;39432;51.902;10.844;2023-05-20T00:13:17;100390.88;;;11.90;100.00
53546;BME280;39432;51.902;10.844;2023-05-20T00:15:47;100398.19;;;12.01;100.00
53546;BME280;39432;51.902;10.844;2023-05-20T00:18:19;100403.84;;;12.11;100.00
53546;BME280;39432;51.902;10.844;2023-05-20T00:20:49;100397.19;;;12.07;100.00
53546;BME280;39432;51.902;10.844;2023-05-20T00:26:38;100394.03;;;11.81;100.00
53546;BME280;39432;51.902;10.844;2023-05-20T00:29:07;100394.19;;;11.63;100.00
53546;BME280;39432;51.902;10.844;2023-05-20T00:31:37;100397.19;;;11.09;100.00
53546;BME280;39432;51.902;10.844;2023-05-20T00:34:10;100399.75;;;11.40;100.00
53546;BME280;39432;51.902;10.844;2023-05-20T00:36:40;100397.72;;;12.21;100.00
53546;BME280;39432;51.902;10.844;2023-05-20T00:39:10;100378.53;;;12.76;100.00
53546;BME280;39432;51.902;10.844;2023-05-20T00:41:39;100388.47;;;12.44;100.00
53546;BME280;39432;51.902;10.844;2023-05-20T00:44:09;100385.75;;;12.10;100.00
53546;BME280;39432;51.902;10.844;2023-05-20T00:46:39;100381.72;;;11.84;100.00
53546;BME280;39432;51.902;10.844;2023-05-20T00:49:11;100377.44;;;11.48;100.00
53546;BME280;39432;51.902;10.844;2023-05-20T00:51:41;100387.59;;;11.76;100.00
53546;BME280;39432;51.902;10.844;2023-05-20T00:54:11;100388.22;;;11.38;100.00
53546;BME280;39432;51.902;10.844;2023-05-20T00:56:41;100393.09;;;11.64;100.00
53546;BME280;39432;51.902;10.844;2023-05-20T00:59:11;100392.91;;;11.54;100.00
53546;BME280;39432;51.902;10.844;2023-05-20T01:01:41;100385.16;;;11.22;100.00
53546;BME280;39432;51.902;10.844;2023-05-20T01:04:14;100383.97;;;11.75;100.00
53546;BME280;39432;51.902;10.844;2023-05-20T01:06:44;100382.44;;;11.51;100.00
53546;BME280;39432;51.902;10.844;2023-05-20T01:09:15;100380.47;;;11.63;100.00
53546;BME280;39432;51.902;10.844;2023-05-20T01:11:47;100379.47;;;11.69;100.00
53546;BME280;39432;51.902;10.844;2023-05-20T01:14:19;100371.00;;;11.54;100.00
53546;BME280;39432;51.902;10.844;2023-05-20T01:16:52;100370.94;;;11.94;100.00
53546;BME280;39432;51.902;10.844;2023-05-20T01:19:34;100372.97;;;11.58;100.00
53546;BME280;39432;51.902;10.844;2023-05-20T01:22:06;100380.31;;;11.01;100.00
53546;BME280;39432;51.902;10.844;2023-05-20T01:24:42;100372.03;;;11.24;100.00
53546;BME280;39432;51.902;10.844;2023-05-20T01:27:14;100376.53;;;10.90;100.00
53546;BME280;39432;51.902;10.844;2023-05-20T01:29:46;100374.16;;;10.82;100.00
53546;BME280;39432;51.902;10.844;2023-05-20T01:32:19;100373.22;;;11.28;100.00
53546;BME280;39432;51.902;10.844;2023-05-20T01:34:51;100371.53;;;10.87;100.00
53546;BME280;39432;51.902;10.844;2023-05-20T01:37:22;100379.75;;;10.99;100.00
53546;BME280;39432;51.902;10.844;2023-05-20T01:39:55;100363.19;;;11.34;100.00
53546;BME280;39432;51.902;10.844;2023-05-20T01:42:25;100368.97;;;10.45;100.00
53546;BME280;39432;51.902;10.844;2023-05-20T01:44:57;100375.03;;;10.36;100.00
53546;BME280;39432;51.902;10.844;2023-05-20T01:47:28;100376.81;;;10.42;100.00
53546;BME280;39432;51.902;10.844;2023-05-20T01:50:01;100375.00;;;10.59;100.00
53546;BME280;39432;51.902;10.844;2023-05-20T01:52:30;100375.84;;;10.36;100.00
53546;BME280;39432;51.902;10.844;2023-05-20T01:55:04;100367.63;;;10.24;100.00
53546;BME280;39432;51.902;10.844;2023-05-20T01:57:34;100376.81;;;10.53;100.00
53546;BME280;39432;51.902;10.844;2023-05-20T02:00:06;100370.16;;;10.49;100.00
53546;BME280;39432;51.902;10.844;2023-05-20T02:02:44;100376.22;;;10.63;100.00
53546;BME280;39432;51.902;10.844;2023-05-20T02:05:15;100382.84;;;10.91;100.00
53546;BME280;39432;51.902;10.844;2023-05-20T02:07:45;100377.38;;;10.91;100.00
53546;BME280;39432;51.902;10.844;2023-05-20T02:10:17;100365.50;;;10.73;100.00
53546;BME280;39432;51.902;10.844;2023-05-20T02:12:47;100367.59;;;10.95;100.00
53546;BME280;39432;51.902;10.844;2023-05-20T02:15:17;100370.22;;;10.90;100.00
53546;BME280;39432;51.902;10.844;2023-05-20T02:17:47;100376.53;;;11.30;100.00
53546;BME280;39432;51.902;10.844;2023-05-20T02:20:17;100365.16;;;11.22;100.00
53546;BME280;39432;51.902;10.844;2023-05-20T02:22:47;100363.72;;;11.19;100.00
53546;BME280;39432;51.902;10.844;2023-05-20T02:25:19;100367.44;;;11.42;100.00
53546;BME280;39432;51.902;10.844;2023-05-20T02:27:49;100364.44;;;11.83;100.00
53546;BME280;39432;51.902;10.844;2023-05-20T02:30:19;100353.28;;;11.90;100.00
53546;BME280;39432;51.902;10.844;2023-05-20T02:32:49;100347.50;;;12.20;100.00
53546;BME280;39432;51.902;10.844;2023-05-20T02:35:19;100349.97;;;11.88;100.00
53546;BME280;39432;51.902;10.844;2023-05-20T02:37:49;100339.78;;;11.55;100.00
53546;BME280;39432;51.902;10.844;2023-05-20T02:40:21;100350.13;;;10.84;100.00
53546;BME280;39432;51.902;10.844;2023-05-20T02:42:53;100344.44;;;11.71;100.00
53546;BME280;39432;51.902;10.844;2023-05-20T02:45:22;100335.69;;;11.57;100.00
53546;BME280;39432;51.902;10.844;2023-05-20T02:47:52;100339.84;;;11.31;100.00
53546;BME280;39432;51.902;10.844;2023-05-20T02:50:22;100346.91;;;11.56;100.00
53546;BME280;39432;51.902;10.844;2023-05-20T02:52:52;100348.94;;;11.77;100.00
53546;BME280;39432;51.902;10.844;2023-05-20T02:55:24;100347.00;;;11.32;100.00
53546;BME280;39432;51.902;10.844;2023-05-20T02:57:54;100354.63;;;11.88;100.00
53546;BME280;39432;51.902;10.844;2023-05-20T03:00:24;100357.97;;;11.61;100.00
53546;BME280;39432;51.902;10.844;2023-05-20T03:02:56;100342.09;;;11.06;100.00
53546;BME280;39432;51.902;10.844;2023-05-20T03:05:27;100343.44;;;11.60;100.00
53546;BME280;39432;51.902;10.844;2023-05-20T03:07:58;100344.78;;;10.66;100.00
53546;BME280;39432;51.902;10.844;2023-05-20T03:10:31;100347.34;;;11.36;100.00
53546;BME280;39432;51.902;10.844;2023-05-20T03:13:00;100351.00;;;11.42;100.00
53546;BME280;39432;51.902;10.844;2023-05-20T03:15:30;100348.22;;;11.25;100.00
53546;BME280;39432;51.902;10.844;2023-05-20T03:18:01;100356.88;;;11.05;100.00
53546;BME280;39432;51.902;10.844;2023-05-20T03:20:30;100361.22;;;10.54;100.00
53546;BME280;39432;51.902;10.844;2023-05-20T03:23:03;100360.94;;;10.20;100.00
53546;BME280;39432;51.902;10.844;2023-05-20T03:25:38;100371.41;;;10.82;100.00
53546;BME280;39432;51.902;10.844;2023-05-20T03:28:08;100364.69;;;11.13;100.00
53546;BME280;39432;51.902;10.844;2023-05-20T03:30:38;100375.19;;;11.16;100.00
53546;BME280;39432;51.902;10.844;2023-05-20T03:33:09;100365.19;;;11.10;100.00
53546;BME280;39432;51.902;10.844;2023-05-20T03:35:39;100364.03;;;11.34;100.00
53546;BME280;39432;51.902;10.844;2023-05-20T03:38:09;100362.53;;;11.15;100.00
53546;BME280;39432;51.902;10.844;2023-05-20T03:40:42;100369.63;;;10.99;100.00
53546;BME280;39432;51.902;10.844;2023-05-20T03:43:11;100368.69;;;10.94;100.00
53546;BME280;39432;51.902;10.844;2023-05-20T03:45:41;100379.47;;;11.12;100.00
53546;BME280;39432;51.902;10.844;2023-05-20T03:48:12;100383.28;;;11.11;100.00
53546;BME280;39432;51.902;10.844;2023-05-20T03:50:42;100382.22;;;11.41;100.00
53546;BME280;39432;51.902;10.844;2023-05-20T03:53:12;100379.06;;;11.32;100.00
53546;BME280;39432;51.902;10.844;2023-05-20T03:55:45;100383.22;;;11.34;100.00
53546;BME280;39432;51.902;10.844;2023-05-20T03:58:15;100384.03;;;11.64;100.00
53546;BME280;39432;51.902;10.844;2023-05-20T04:00:47;100388.53;;;11.81;100.00
53546;BME280;39432;51.902;10.844;2023-05-20T04:03:17;100380.06;;;12.00;100.00
53546;BME280;39432;51.902;10.844;2023-05-20T04:05:49;100365.88;;;11.74;100.00
53546;BME280;39432;51.902;10.844;2023-05-20T04:08:20;100372.84;;;11.65;100.00
53546;BME280;39432;51.902;10.844;2023-05-20T04:10:57;100364.72;;;11.99;100.00
53546;BME280;39432;51.902;10.844;2023-05-20T04:13:27;100364.44;;;11.26;100.00
53546;BME280;39432;51.902;10.844;2023-05-20T04:15:57;100366.63;;;11.41;100.00
53546;BME280;39432;51.902;10.844;2023-05-20T04:18:28;100364.13;;;11.40;100.00
53546;BME280;39432;51.902;10.844;2023-05-20T04:20:59;100368.63;;;11.17;100.00
53546;BME280;39432;51.902;10.844;2023-05-20T04:23:28;100363.19;;;11.63;100.00
53546;BME280;39432;51.902;10.844;2023-05-20T04:26:01;100366.38;;;11.43;100.00
53546;BME280;39432;51.902;10.844;2023-05-20T04:28:31;100365.72;;;11.81;100.00
53546;BME280;39432;51.902;10.844;2023-05-20T04:31:03;100361.63;;;11.95;100.00
53546;BME280;39432;51.902;10.844;2023-05-20T04:33:35;100366.00;;;11.51;100.00
53546;BME280;39432;51.902;10.844;2023-05-20T04:36:09;100364.66;;;11.53;100.00
53546;BME280;39432;51.902;10.844;2023-05-20T04:38:43;100367.38;;;11.65;100.00
53546;BME280;39432;51.902;10.844;2023-05-20T04:41:16;100362.78;;;11.82;100.00
53546;BME280;39432;51.902;10.844;2023-05-20T04:43:46;100367.63;;;11.80;100.00
53546;BME280;39432;51.902;10.844;2023-05-20T04:46:16;100368.09;;;11.89;100.00
53546;BME280;39432;51.902;10.844;2023-05-20T04:48:46;100361.13;;;11.98;100.00
53546;BME280;39432;51.902;10.844;2023-05-20T04:51:16;100372.84;;;11.65;100.00
53546;BME280;39432;51.902;10.844;2023-05-20T04:53:46;100371.00;;;11.54;100.00
53546;BME280;39432;51.902;10.844;2023-05-20T04:56:19;100369.47;;;12.20;100.00
53546;BME280;39432;51.902;10.844;2023-05-20T04:58:48;100363.19;;;12.08;100.00
53546;BME280;39432;51.902;10.844;2023-05-20T05:01:18;100365.63;;;12.04;100.00
53546;BME280;39432;51.902;10.844;2023-05-20T05:03:48;100362.41;;;11.79;100.00
53546;BME280;39432;51.902;10.844;2023-05-20T05:06:20;100366.84;;;12.13;100.00
53546;BME280;39432;51.902;10.844;2023-05-20T05:08:49;100361.47;;;11.73;100.00
53546;BME280;39432;51.902;10.844;2023-05-20T05:11:22;100363.53;;;12.11;100.00
53546;BME280;39432;51.902;10.844;2023-05-20T05:13:53;100360.22;;;11.93;100.00
53546;BME280;39432;51.902;10.844;2023-05-20T05:16:25;100357.22;;;12.11;100.00
53546;BME280;39432;51.902;10.844;2023-05-20T05:18:55;100358.47;;;12.20;100.00
53546;BME280;39432;51.902;10.844;2023-05-20T05:21:27;100350.25;;;12.37;100.00
53546;BME280;39432;51.902;10.844;2023-05-20T05:23:57;100358.72;;;11.73;100.00
53546;BME280;39432;51.902;10.844;2023-05-20T05:26:29;100347.34;;;12.10;100.00
53546;BME280;39432;51.902;10.844;2023-05-20T05:29:00;100343.50;;;11.94;100.00
53546;BME280;39432;51.902;10.844;2023-05-20T05:31:31;100352.25;;;11.79;100.00
53546;BME280;39432;51.902;10.844;2023-05-20T05:34:00;100350.66;;;12.29;100.00
53546;BME280;39432;51.902;10.844;2023-05-20T05:36:32;100352.81;;;12.10;100.00
53546;BME280;39432;51.902;10.844;2023-05-20T05:39:02;100346.72;;;12.25;100.00
53546;BME280;39432;51.902;10.844;2023-05-20T05:41:34;100348.66;;;12.24;100.00
53546;BME280;39432;51.902;10.844;2023-05-20T05:44:05;100346.56;;;12.48;100.00
53546;BME280;39432;51.902;10.844;2023-05-20T05:46:35;100345.50;;;12.32;100.00
53546;BME280;39432;51.902;10.844;2023-05-20T05:49:05;100350.34;;;12.25;100.00
53546;BME280;39432;51.902;10.844;2023-05-20T05:51:35;100352.75;;;12.22;100.00
53546;BME280;39432;51.902;10.844;2023-05-20T05:54:05;100354.25;;;12.68;100.00
53546;BME280;39432;51.902;10.844;2023-05-20T05:56:37;100346.59;;;12.70;100.00
53546;BME280;39432;51.902;10.844;2023-05-20T05:59:07;100345.13;;;12.46;100.00
53546;BME280;39432;51.902;10.844;2023-05-20T06:01:37;100353.13;;;12.30;100.00
53546;BME280;39432;51.902;10.844;2023-05-20T06:04:07;100359.63;;;12.24;100.00
53546;BME280;39432;51.902;10.844;2023-05-20T06:06:37;100354.13;;;12.07;100.00
53546;BME280;39432;51.902;10.844;2023-05-20T06:09:07;100367.53;;;12.04;100.00
53546;BME280;39432;51.902;10.844;2023-05-20T06:11:39;100363.84;;;12.49;100.00
53546;BME280;39432;51.902;10.844;2023-05-20T06:14:10;100366.63;;;12.32;100.00
53546;BME280;39432;51.902;10.844;2023-05-20T06:16:40;100358.63;;;12.47;100.00
53546;BME280;39432;51.902;10.844;2023-05-20T06:19:11;100361.28;;;12.42;100.00
53546;BME280;39432;51.902;10.844;2023-05-20T06:21:40;100357.63;;;12.03;100.00
53546;BME280;39432;51.902;10.844;2023-05-20T06:24:10;100362.56;;;12.73;100.00
53546;BME280;39432;51.902;10.844;2023-05-20T06:26:43;100354.88;;;12.53;100.00
53546;BME280;39432;51.902;10.844;2023-05-20T06:29:15;100355.94;;;12.52;100.00
53546;BME280;39432;51.902;10.844;2023-05-20T06:31:45;100359.53;;;12.53;100.00
53546;BME280;39432;51.902;10.844;2023-05-20T06:34:15;100368.00;;;11.84;100.00
53546;BME280;39432;51.902;10.844;2023-05-20T06:36:45;100369.91;;;11.83;100.00
53546;BME280;39432;51.902;10.844;2023-05-20T06:39:17;100369.19;;;12.05;100.00
53546;BME280;39432;51.902;10.844;2023-05-20T06:41:50;100361.31;;;12.25;100.00
53546;BME280;39432;51.902;10.844;2023-05-20T06:44:27;100363.69;;;11.88;100.00
53546;BME280;39432;51.902;10.844;2023-05-20T06:47:00;100367.34;;;11.94;100.00
53546;BME280;39432;51.902;10.844;2023-05-20T06:49:30;100365.63;;;12.21;100.00
53546;BME280;39432;51.902;10.844;2023-05-20T06:52:00;100377.44;;;11.76;100.00
53546;BME280;39432;51.902;10.844;2023-05-20T06:54:30;100369.59;;;11.97;100.00
53546;BME280;39432;51.902;10.844;2023-05-20T06:57:06;100365.09;;;12.24;100.00
53546;BME280;39432;51.902;10.844;2023-05-20T06:59:36;100364.72;;;12.32;100.00
53546;BME280;39432;51.902;10.844;2023-05-20T07:02:07;100371.28;;;11.98;100.00
53546;BME280;39432;51.902;10.844;2023-05-20T07:04:37;100369.81;;;12.62;100.00
53546;BME280;39432;51.902;10.844;2023-05-20T07:07:07;100366.75;;;12.59;100.00
53546;BME280;39432;51.902;10.844;2023-05-20T07:09:37;100354.47;;;13.05;100.00
53546;BME280;39432;51.902;10.844;2023-05-20T07:12:09;100352.69;;;13.38;100.00
53546;BME280;39432;51.902;10.844;2023-05-20T07:14:39;100348.59;;;12.58;100.00
53546;BME280;39432;51.902;10.844;2023-05-20T07:17:10;100345.56;;;13.64;100.00
53546;BME280;39432;51.902;10.844;2023-05-20T07:19:39;100336.28;;;13.21;100.00
53546;BME280;39432;51.902;10.844;2023-05-20T07:22:09;100334.56;;;13.37;100.00
53546;BME280;39432;51.902;10.844;2023-05-20T07:24:49;100328.44;;;13.13;100.00
53546;BME280;39432;51.902;10.844;2023-05-20T07:27:22;100329.00;;;13.32;100.00
53546;BME280;39432;51.902;10.844;2023-05-20T07:29:51;100317.41;;;13.84;100.00
53546;BME280;39432;51.902;10.844;2023-05-20T07:32:21;100322.63;;;13.80;100.00
53546;BME280;39432;51.902;10.844;2023-05-20T07:34:51;100305.31;;;13.53;100.00
53546;BME280;39432;51.902;10.844;2023-05-20T07:37:22;100310.59;;;13.91;100.00
53546;BME280;39432;51.902;10.844;2023-05-20T07:39:52;100305.19;;;13.69;100.00
53546;BME280;39432;51.902;10.844;2023-05-20T07:42:24;100306.00;;;14.39;100.00
53546;BME280;39432;51.902;10.844;2023-05-20T07:44:58;100306.53;;;14.36;100.00
53546;BME280;39432;51.902;10.844;2023-05-20T07:47:30;100316.34;;;13.90;100.00
53546;BME280;39432;51.902;10.844;2023-05-20T07:50:00;100309.13;;;14.48;100.00
53546;BME280;39432;51.902;10.844;2023-05-20T07:52:33;100310.88;;;14.64;100.00
53546;BME280;39432;51.902;10.844;2023-05-20T07:55:22;100306.94;;;14.55;100.00
53546;BME280;39432;51.902;10.844;2023-05-20T07:57:54;100298.09;;;13.79;100.00
53546;BME280;39432;51.902;10.844;2023-05-20T08:00:24;100297.31;;;14.15;100.00
53546;BME280;39432;51.902;10.844;2023-05-20T08:02:58;100299.56;;;14.23;100.00
53546;BME280;39432;51.902;10.844;2023-05-20T08:05:39;100303.41;;;13.85;100.00
53546;BME280;39432;51.902;10.844;2023-05-20T08:08:09;100299.75;;;14.49;100.00
53546;BME280;39432;51.902;10.844;2023-05-20T08:10:49;100301.13;;;14.09;100.00
53546;BME280;39432;51.902;10.844;2023-05-20T08:13:25;100301.44;;;14.55;100.00
53546;BME280;39432;51.902;10.844;2023-05-20T08:15:55;100293.78;;;15.35;100.00
53546;BME280;39432;51.902;10.844;2023-05-20T08:18:25;100293.72;;;15.15;100.00
53546;BME280;39432;51.902;10.844;2023-05-20T08:20:55;100288.84;;;13.90;100.00
53546;BME280;39432;51.902;10.844;2023-05-20T08:23:25;100288.72;;;14.07;100.00
53546;BME280;39432;51.902;10.844;2023-05-20T08:26:02;100288.50;;;14.51;100.00
53546;BME280;39432;51.902;10.844;2023-05-20T08:28:36;100293.69;;;14.10;100.00
53546;BME280;39432;51.902;10.844;2023-05-20T08:31:06;100289.69;;;13.90;100.00
53546;BME280;39432;51.902;10.844;2023-05-20T08:33:36;100285.53;;;13.88;100.00
53546;BME280;39432;51.902;10.844;2023-05-20T08:36:06;100290.97;;;14.15;100.00
53546;BME280;39432;51.902;10.844;2023-05-20T08:38:37;100280.25;;;13.81;100.00
53546;BME280;39432;51.902;10.844;2023-05-20T08:41:07;100284.06;;;14.49;100.00
53546;BME280;39432;51.902;10.844;2023-05-20T08:43:42;100284.91;;;14.13;100.00
53546;BME280;39432;51.902;10.844;2023-05-20T08:46:14;100283.56;;;14.20;100.00
53546;BME280;39432;51.902;10.844;2023-05-20T08:48:44;100284.84;;;14.03;100.00
53546;BME280;39432;51.902;10.844;2023-05-20T08:51:15;100281.03;;;14.09;100.00
53546;BME280;39432;51.902;10.844;2023-05-20T08:53:48;100281.88;;;13.77;100.00
53546;BME280;39432;51.902;10.844;2023-05-20T08:56:18;100285.97;;;14.12;100.00
53546;BME280;39432;51.902;10.844;2023-05-20T08:58:52;100284.38;;;14.16;100.00
53546;BME280;39432;51.902;10.844;2023-05-20T09:01:22;100288.72;;;14.07;100.00
53546;BME280;39432;51.902;10.844;2023-05-20T09:03:52;100279.38;;;14.08;100.00
53546;BME280;39432;51.902;10.844;2023-05-20T09:06:22;100284.47;;;14.31;100.00
53546;BME280;39432;51.902;10.844;2023-05-20T09:08:52;100287.47;;;13.87;100.00
53546;BME280;39432;51.902;10.844;2023-05-20T09:11:22;100293.50;;;13.89;100.00
53546;BME280;39432;51.902;10.844;2023-05-20T09:13:55;100290.94;;;14.10;100.00
53546;BME280;39432;51.902;10.844;2023-05-20T09:16:25;100294.88;;;13.87;100.00
53546;BME280;39432;51.902;10.844;2023-05-20T09:18:55;100294.97;;;13.97;100.00
53546;BME280;39432;51.902;10.844;2023-05-20T09:21:25;100294.97;;;13.97;100.00
53546;BME280;39432;51.902;10.844;2023-05-20T09:23:55;100298.81;;;13.96;100.00
53546;BME280;39432;51.902;10.844;2023-05-20T09:26:26;100293.50;;;13.89;100.00
53546;BME280;39432;51.902;10.844;2023-05-20T09:28:59;100289.31;;;13.50;100.00
53546;BME280;39432;51.902;10.844;2023-05-20T09:31:30;100295.19;;;13.90;100.00
53546;BME280;39432;51.902;10.844;2023-05-20T09:34:00;100293.28;;;13.91;100.00
53546;BME280;39432;51.902;10.844;2023-05-20T09:36:31;100275.72;;;13.97;100.00
53546;BME280;39432;51.902;10.844;2023-05-20T09:39:03;100278.22;;;14.41;100.00
53546;BME280;39432;51.902;10.844;2023-05-20T09:41:41;100277.34;;;14.35;100.00
53546;BME280;39432;51.902;10.844;2023-05-20T09:44:16;100279.47;;;14.23;100.00
53546;BME280;39432;51.902;10.844;2023-05-20T09:46:46;100276.28;;;14.41;100.00
53546;BME280;39432;51.902;10.844;2023-05-20T09:49:18;100285.69;;;14.45;100.00
53546;BME280;39432;51.902;10.844;2023-05-20T09:51:50;100272.97;;;14.44;100.00
53546;BME280;39432;51.902;10.844;2023-05-20T09:54:21;100269.91;;;14.36;100.00
53546;BME280;39432;51.902;10.844;2023-05-20T09:56:52;100274.44;;;14.52;100.00
53546;BME280;39432;51.902;10.844;2023-05-20T09:59:25;100291.28;;;14.61;100.00
53546;BME280;39432;51.902;10.844;2023-05-20T10:01:55;100287.56;;;14.40;100.00
53546;BME280;39432;51.902;10.844;2023-05-20T10:04:26;100273.44;;;14.26;100.00
53546;BME280;39432;51.902;10.844;2023-05-20T10:10:18;100276.38;;;14.52;100.00
53546;BME280;39432;51.902;10.844;2023-05-20T10:18:42;100260.25;;;14.81;100.00
53546;BME280;39432;51.902;10.844;2023-05-20T10:21:15;100259.88;;;14.57;100.00
53546;BME280;39432;51.902;10.844;2023-05-20T10:23:48;100254.44;;;14.67;100.00
53546;BME280;39432;51.902;10.844;2023-05-20T10:26:18;100263.28;;;14.32;100.00
53546;BME280;39432;51.902;10.844;2023-05-20T10:28:48;100251.22;;;14.95;100.00
53546;BME280;39432;51.902;10.844;2023-05-20T10:31:21;100242.56;;;14.71;100.00
53546;BME280;39432;51.902;10.844;2023-05-20T10:33:52;100255.00;;;14.74;100.00
53546;BME280;39432;51.902;10.844;2023-05-20T10:36:26;100250.31;;;14.74;100.00
53546;BME280;39432;51.902;10.844;2023-05-20T10:38:58;100242.31;;;14.68;100.00
53546;BME280;39432;51.902;10.844;2023-05-20T10:41:29;100259.28;;;14.49;100.00
53546;BME280;39432;51.902;10.844;2023-05-20T10:44:01;100247.31;;;14.86;100.00
53546;BME280;39432;51.902;10.844;2023-05-20T10:46:34;100242.66;;;14.39;100.00
53546;BME280;39432;51.902;10.844;2023-05-20T10:49:32;100253.75;;;14.49;100.00
53546;BME280;39432;51.902;10.844;2023-05-20T10:52:03;100234.13;;;14.98;100.00
53546;BME280;39432;51.902;10.844;2023-05-20T10:54:34;100228.06;;;14.96;100.00
53546;BME280;39432;51.902;10.844;2023-05-20T10:57:05;100233.53;;;14.34;100.00
53546;BME280;39432;51.902;10.844;2023-05-20T10:59:36;100233.53;;;14.81;100.00
53546;BME280;39432;51.902;10.844;2023-05-20T11:02:09;100229.66;;;14.77;100.00
53546;BME280;39432;51.902;10.844;2023-05-20T11:04:41;100221.44;;;14.97;100.00
53546;BME280;39432;51.902;10.844;2023-05-20T11:07:11;100224.63;;;14.59;100.00
53546;BME280;39432;51.902;10.844;2023-05-20T11:09:48;100218.19;;;15.06;100.00
53546;BME280;39432;51.902;10.844;2023-05-20T11:12:19;100209.31;;;14.93;100.00
53546;BME280;39432;51.902;10.844;2023-05-20T11:14:49;100208.50;;;15.03;100.00
53546;BME280;39432;51.902;10.844;2023-05-20T11:17:22;100204.44;;;15.62;100.00
53546;BME280;39432;51.902;10.844;2023-05-20T11:19:52;100207.13;;;14.95;100.00
53546;BME280;39432;51.902;10.844;2023-05-20T11:22:22;100197.28;;;15.40;100.00
53546;BME280;39432;51.902;10.844;2023-05-20T11:24:52;100187.91;;;15.57;100.00
53546;BME280;39432;51.902;10.844;2023-05-20T11:27:21;100185.66;;;15.43;100.00
53546;BME280;39432;51.902;10.844;2023-05-20T11:29:51;100187.88;;;15.82;100.00
53546;BME280;39432;51.902;10.844;2023-05-20T11:32:23;100186.78;;;15.17;100.00
53546;BME280;39432;51.902;10.844;2023-05-20T11:34:53;100190.34;;;15.33;100.00
53546;BME280;39432;51.902;10.844;2023-05-20T11:37:23;100190.09;;;15.19;100.00
53546;BME280;39432;51.902;10.844;2023-05-20T11:40:02;100185.13;;;15.62;100.00
53546;BME280;39432;51.902;10.844;2023-05-20T11:42:34;100189.78;;;15.20;100.00
53546;BME280;39432;51.902;10.844;2023-05-20T11:45:05;100191.22;;;15.64;100.00
53546;BME280;39432;51.902;10.844;2023-05-20T11:47:37;100196.69;;;15.13;100.00
53546;BME280;39432;51.902;10.844;2023-05-20T11:50:09;100193.38;;;15.16;100.00
53546;BME280;39432;51.902;10.844;2023-05-20T11:52:39;100196.34;;;14.89;100.00
53546;BME280;39432;51.902;10.844;2023-05-20T11:55:09;100200.22;;;14.98;100.00
53546;BME280;39432;51.902;10.844;2023-05-20T11:57:39;100192.84;;;15.24;100.00
53546;BME280;39432;51.902;10.844;2023-05-20T12:00:10;100196.44;;;15.40;100.00
53546;BME280;39432;51.902;10.844;2023-05-20T12:02:43;100194.44;;;15.05;100.00
53546;BME280;39432;51.902;10.844;2023-05-20T12:05:13;100194.22;;;15.32;100.00
53546;BME280;39432;51.902;10.844;2023-05-20T12:07:43;100186.19;;;14.89;100.00
53546;BME280;39432;51.902;10.844;2023-05-20T12:10:13;100191.13;;;14.92;100.00
53546;BME280;39432;51.902;10.844;2023-05-20T12:12:43;100187.03;;;15.15;100.00
53546;BME280;39432;51.902;10.844;2023-05-20T12:15:13;100185.09;;;15.06;100.00
53546;BME280;39432;51.902;10.844;2023-05-20T12:17:47;100189.44;;;14.81;100.00
53546;BME280;39432;51.902;10.844;2023-05-20T12:20:20;100181.72;;;14.73;100.00
53546;BME280;39432;51.902;10.844;2023-05-20T12:22:50;100179.81;;;14.89;100.00
53546;BME280;39432;51.902;10.844;2023-05-20T12:25:20;100184.47;;;14.73;100.00
53546;BME280;39432;51.902;10.844;2023-05-20T12:27:50;100171.34;;;15.26;100.00
53546;BME280;39432;51.902;10.844;2023-05-20T12:30:21;100163.09;;;15.67;100.00
53546;BME280;39432;51.902;10.844;2023-05-20T12:32:54;100158.13;;;15.64;100.00
53546;BME280;39432;51.902;10.844;2023-05-20T12:35:25;100161.34;;;16.06;100.00
53546;BME280;39432;51.902;10.844;2023-05-20T12:38:04;100158.09;;;15.43;100.00
53546;BME280;39432;51.902;10.844;2023-05-20T12:40:35;100170.75;;;15.03;100.00
53546;BME280;39432;51.902;10.844;2023-05-20T12:43:05;100166.94;;;15.40;100.00
53546;BME280;39432;51.902;10.844;2023-05-20T12:45:35;100169.69;;;15.40;100.00
53546;BME280;39432;51.902;10.844;2023-05-20T12:48:07;100159.22;;;15.22;100.00
53546;BME280;39432;51.902;10.844;2023-05-20T12:50:37;100169.09;;;15.02;100.00
53546;BME280;39432;51.902;10.844;2023-05-20T12:53:07;100151.22;;;15.46;100.00
53546;BME280;39432;51.902;10.844;2023-05-20T12:55:37;100145.69;;;15.56;100.00
53546;BME280;39432;51.902;10.844;2023-05-20T12:58:07;100153.16;;;15.61;100.00
53546;BME280;39432;51.902;10.844;2023-05-20T13:00:37;100143.47;;;15.58;100.00
53546;BME280;39432;51.902;10.844;2023-05-20T13:03:09;100148.69;;;15.95;100.00